Time;durP1;ratioP1;P1;durP2;ratioP2;P2;SDS_P1;SDS_P2;PMS_P1;PMS_P2;Temp;Humidity;BMP_temperature;BMP_pressure;BME280_temperature;BME280_humidity;BME280_pressure;Samples;Min_cycle;Max_cycle;Signal;HPM_P1;HPM_P2
2023/10/06 00:01:42;;;;;;;8.57;2.97;;;15.40;99.90;;;;;;5072766;28;20099;-37
2023/10/06 00:04:22;;;;;;;8.80;3.38;;;15.40;99.90;;;;;;5072718;28;20029;-36
2023/10/06 00:06:48;;;;;;;12.35;3.30;;;15.40;99.90;;;;;;5061039;28;20028;-37
2023/10/06 00:09:28;;;;;;;5.53;2.70;;;15.40;99.90;;;;;;5069716;28;20070;-38
2023/10/06 00:11:54;;;;;;;6.82;3.08;;;15.30;99.90;;;;;;5072721;28;20036;-39
2023/10/06 00:14:38;;;;;;;5.22;3.22;;;15.30;99.90;;;;;;5064415;28;20036;-37
2023/10/06 00:17:28;;;;;;;5.72;2.58;;;15.30;99.90;;;;;;5056212;28;20025;-36
2023/10/06 00:19:55;;;;;;;10.57;3.20;;;15.30;99.90;;;;;;5072061;28;20078;-37
2023/10/06 00:22:21;;;;;;;;;;;15.30;99.90;;;;;;5070748;28;20024;-35
2023/10/06 00:24:50;;;;;;;5.25;2.90;;;15.30;99.90;;;;;;5068641;28;19909;-37
2023/10/06 00:27:20;;;;;;;11.85;2.75;;;15.30;99.90;;;;;;5072735;28;20032;-37
2023/10/06 00:29:54;;;;;;;4.97;2.90;;;15.30;99.90;;;;;;5076390;28;20048;-38
2023/10/06 00:32:26;;;;;;;10.02;3.08;;;15.30;99.90;;;;;;5076345;28;20024;-38
2023/10/06 00:34:55;;;;;;;11.38;2.78;;;15.20;99.90;;;;;;5064820;28;20033;-38
2023/10/06 00:37:24;;;;;;;7.38;2.80;;;15.30;99.90;;;;;;5065849;28;20024;-36
2023/10/06 00:39:54;;;;;;;11.82;3.33;;;15.20;99.90;;;;;;5075010;28;20057;-37
2023/10/06 00:42:21;;;;;;;7.20;2.50;;;15.20;99.90;;;;;;5064578;28;20029;-38
2023/10/06 00:44:47;;;;;;;8.35;2.88;;;15.10;99.90;;;;;;5057324;28;20036;-41
2023/10/06 00:47:13;;;;;;;7.55;2.72;;;15.10;99.90;;;;;;5076057;28;20484;-37
2023/10/06 00:49:43;;;;;;;6.90;3.10;;;15.10;99.90;;;;;;5074671;28;20815;-37
2023/10/06 00:52:11;;;;;;;12.60;3.40;;;15.10;99.90;;;;;;5074695;28;20131;-52
2023/10/06 00:54:39;;;;;;;9.52;3.10;;;15.10;99.90;;;;;;5075628;28;20039;-52
2023/10/06 00:57:08;;;;;;;5.30;3.20;;;15.10;99.90;;;;;;5075435;28;20029;-52
2023/10/06 00:59:37;;;;;;;13.60;3.47;;;15.10;99.90;;;;;;5069077;28;20021;-49
2023/10/06 01:02:09;;;;;;;9.25;3.13;;;15.10;99.90;;;;;;5074884;28;20024;-49
2023/10/06 01:04:45;;;;;;;5.68;3.03;;;15.10;99.90;;;;;;5072861;28;20067;-52
2023/10/06 01:07:16;;;;;;;4.82;3.13;;;15.00;99.90;;;;;;5074948;28;20115;-51
2023/10/06 01:10:06;;;;;;;6.88;3.10;;;15.00;99.90;;;;;;5072791;28;20385;-53
2023/10/06 01:12:32;;;;;;;6.55;2.83;;;15.00;99.90;;;;;;5070426;28;20503;-55
2023/10/06 01:17:43;;;;;;;10.57;4.30;;;14.90;99.90;;;;;;5074829;28;20396;-52
2023/10/06 01:20:10;;;;;;;8.65;3.13;;;15.00;99.90;;;;;;5070480;28;20017;-52
2023/10/06 01:22:42;;;;;;;13.70;3.30;;;14.90;99.90;;;;;;5073434;28;20445;-53
2023/10/06 01:25:20;;;;;;;8.30;2.90;;;14.90;99.90;;;;;;5071879;28;20108;-38
2023/10/06 01:27:50;;;;;;;8.63;2.47;;;14.90;99.90;;;;;;5065049;28;20028;-38
2023/10/06 01:32:45;;;;;;;6.53;2.50;;;14.80;99.90;;;;;;5070361;28;20071;-38
2023/10/06 01:35:13;;;;;;;4.18;2.40;;;14.80;99.90;;;;;;5060878;28;20063;-39
2023/10/06 01:37:43;;;;;;;7.82;2.85;;;14.80;99.90;;;;;;5075107;28;20020;-37
2023/10/06 01:42:48;;;;;;;9.00;2.53;;;14.80;99.90;;;;;;5074816;28;20040;-37
2023/10/06 01:45:14;;;;;;;12.60;2.97;;;14.80;99.90;;;;;;5055185;28;20078;-37
2023/10/06 01:47:41;;;;;;;8.43;3.33;;;14.80;99.90;;;;;;5054842;28;20033;-37
2023/10/06 01:50:11;;;;;;;6.55;2.70;;;14.80;99.90;;;;;;5057528;28;20025;-37
2023/10/06 01:52:39;;;;;;;11.35;3.05;;;14.80;99.90;;;;;;5075123;28;20028;-37
2023/10/06 01:55:09;;;;;;;9.45;2.80;;;14.80;99.90;;;;;;5074701;28;20040;-37
2023/10/06 01:57:34;;;;;;;4.50;3.03;;;14.80;99.90;;;;;;5074682;28;20070;-40
2023/10/06 02:00:00;;;;;;;8.35;2.65;;;14.80;99.90;;;;;;5069725;28;20095;-37
2023/10/06 02:02:27;;;;;;;11.73;3.00;;;14.80;99.90;;;;;;5054706;28;20021;-55
2023/10/06 02:04:56;;;;;;;5.65;2.63;;;14.80;99.90;;;;;;5054839;28;20500;-52
2023/10/06 02:07:22;;;;;;;11.80;3.63;;;14.80;99.90;;;;;;5062607;28;20056;-53
2023/10/06 02:09:51;;;;;;;7.80;2.97;;;14.70;99.90;;;;;;5054825;28;20526;-52
2023/10/06 02:12:16;;;;;;;11.95;3.38;;;14.70;99.90;;;;;;5057001;28;20033;-52
2023/10/06 02:14:42;;;;;;;12.68;3.00;;;14.70;99.90;;;;;;5069862;28;20027;-56
2023/10/06 02:17:11;;;;;;;6.35;2.50;;;14.70;99.90;;;;;;5057245;28;20473;-53
2023/10/06 02:19:37;;;;;;;7.25;2.63;;;14.70;99.90;;;;;;5068375;28;20025;-52
2023/10/06 02:22:06;;;;;;;7.88;2.85;;;14.60;99.90;;;;;;5072261;28;20028;-52
2023/10/06 02:24:33;;;;;;;6.72;2.53;;;14.60;99.90;;;;;;5073706;28;20056;-52
2023/10/06 02:27:01;;;;;;;6.32;2.55;;;14.60;99.90;;;;;;5056889;28;20017;-51
2023/10/06 02:29:26;;;;;;;4.80;2.42;;;14.60;99.90;;;;;;5061141;28;20025;-52
2023/10/06 02:32:01;;;;;;;8.27;2.75;;;14.60;99.90;;;;;;5074065;28;20035;-49
2023/10/06 02:34:35;;;;;;;8.77;2.45;;;14.60;99.90;;;;;;5072232;28;20796;-50
2023/10/06 02:37:06;;;;;;;5.97;2.60;;;14.60;99.90;;;;;;5073576;28;20021;-52
2023/10/06 02:39:37;;;;;;;12.20;2.92;;;14.50;99.90;;;;;;5072296;28;20477;-53
2023/10/06 02:42:07;;;;;;;12.95;2.90;;;14.60;99.90;;;;;;5054450;28;20103;-51
2023/10/06 02:44:38;;;;;;;9.00;2.40;;;14.50;99.90;;;;;;5054117;28;20029;-50
2023/10/06 02:47:04;;;;;;;12.27;2.72;;;14.50;99.90;;;;;;5053798;28;20033;-51
2023/10/06 02:49:35;;;;;;;6.38;2.33;;;14.50;99.90;;;;;;5054461;28;20414;-52
2023/10/06 02:52:13;;;;;;;8.23;2.95;;;14.50;99.90;;;;;;5053538;28;20372;-52
2023/10/06 02:54:45;;;;;;;5.85;3.88;;;14.60;99.90;;;;;;5052374;28;20021;-51
2023/10/06 02:57:11;;;;;;;4.95;2.50;;;14.50;99.90;;;;;;5054160;28;20024;-52
2023/10/06 02:59:36;;;;;;;8.13;3.15;;;14.50;99.90;;;;;;5053854;28;20385;-55
2023/10/06 03:02:15;;;;;;;3.88;2.67;;;14.50;99.90;;;;;;5072260;28;20500;-50
2023/10/06 03:04:43;;;;;;;7.30;2.70;;;14.50;99.90;;;;;;5073413;28;20031;-52
2023/10/06 03:07:14;;;;;;;5.35;2.90;;;14.50;99.90;;;;;;5072484;28;20024;-53
2023/10/06 03:09:45;;;;;;;8.98;3.00;;;14.50;99.90;;;;;;5073358;28;20474;-52
2023/10/06 03:14:49;;;;;;;6.88;2.80;;;14.50;99.90;;;;;;5067495;28;20074;-48
2023/10/06 03:17:19;;;;;;;5.78;2.78;;;14.40;99.90;;;;;;5057525;28;20090;-53
2023/10/06 03:19:49;;;;;;;14.18;3.10;;;14.40;99.90;;;;;;5063494;28;20021;-52
2023/10/06 03:22:14;;;;;;;9.27;3.22;;;14.50;99.90;;;;;;5053452;28;20056;-52
2023/10/06 03:24:51;;;;;;;9.65;3.38;;;14.50;99.90;;;;;;5068661;28;20442;-47
2023/10/06 03:27:18;;;;;;;7.18;2.88;;;14.50;99.90;;;;;;5067749;28;20385;-51
2023/10/06 03:30:07;;;;;;;9.57;3.30;;;14.50;99.90;;;;;;5056302;28;20025;-53
2023/10/06 03:32:32;;;;;;;19.75;3.40;;;14.50;99.90;;;;;;5071789;28;20078;-37
2023/10/06 03:38:27;;;;;;;7.45;3.47;;;14.50;99.90;;;;;;5027325;28;20526;-51
2023/10/06 03:46:03;;;;;;;12.77;3.97;;;14.50;99.90;;;;;;5073115;28;20031;-50
2023/10/06 03:48:29;;;;;;;11.60;3.60;;;14.50;99.90;;;;;;5071917;28;20571;-52
2023/10/06 03:50:56;;;;;;;13.65;4.60;;;14.50;99.90;;;;;;5056192;28;20088;-36
2023/10/06 03:53:24;;;;;;;7.72;3.35;;;14.50;99.90;;;;;;5052725;28;20025;-37
2023/10/06 03:55:50;;;;;;;5.72;3.33;;;14.50;99.90;;;;;;5052658;28;20082;-36
2023/10/06 03:58:18;;;;;;;11.18;4.93;;;14.50;99.90;;;;;;5052697;28;20025;-41
2023/10/06 04:00:51;;;;;;;12.60;3.90;;;14.50;99.90;;;;;;5067706;28;20078;-36
2023/10/06 04:03:18;;;;;;;9.77;3.90;;;14.50;99.90;;;;;;5056129;28;20082;-52
2023/10/06 04:05:48;;;;;;;7.40;3.50;;;14.40;99.90;;;;;;5060016;28;20028;-51
2023/10/06 04:08:16;;;;;;;9.68;3.55;;;14.40;99.90;;;;;;5059262;28;20078;-54
2023/10/06 04:10:45;;;;;;;17.27;4.53;;;14.40;99.90;;;;;;5059253;28;20049;-52
2023/10/06 04:13:11;;;;;;;8.80;4.22;;;14.40;99.90;;;;;;5059184;28;20024;-51
2023/10/06 04:15:38;;;;;;;6.20;3.17;;;14.40;99.90;;;;;;5059441;28;20358;-52
2023/10/06 04:18:10;;;;;;;7.68;4.13;;;14.50;99.90;;;;;;5075275;28;20040;-50
2023/10/06 04:20:43;;;;;;;8.80;2.83;;;14.50;99.90;;;;;;5076532;28;20020;-53
2023/10/06 04:23:12;;;;;;;9.00;3.60;;;14.40;99.90;;;;;;5071455;28;20029;-52
2023/10/06 04:25:38;;;;;;;10.77;3.25;;;14.50;99.90;;;;;;5067801;28;20392;-52
2023/10/06 04:28:14;;;;;;;8.68;3.20;;;14.50;99.90;;;;;;5077332;28;20472;-53
2023/10/06 04:30:42;;;;;;;10.35;3.65;;;14.50;99.90;;;;;;5067827;28;20029;-53
2023/10/06 04:33:10;;;;;;;9.98;3.15;;;14.50;99.90;;;;;;5060533;28;20500;-52
2023/10/06 04:35:42;;;;;;;8.90;3.75;;;14.50;99.90;;;;;;5060289;28;20495;-52
2023/10/06 04:38:10;;;;;;;10.23;4.03;;;14.40;99.90;;;;;;5075480;28;20109;-52
2023/10/06 04:40:41;;;;;;;7.15;3.22;;;14.40;99.90;;;;;;5078319;28;20059;-52
2023/10/06 04:43:07;;;;;;;10.52;3.83;;;14.40;99.90;;;;;;5065364;28;20027;-37
2023/10/06 04:45:33;;;;;;;5.15;3.20;;;14.40;99.90;;;;;;5078791;28;20107;-37
2023/10/06 04:48:00;;;;;;;7.55;3.28;;;14.50;99.90;;;;;;5078860;28;20020;-36
2023/10/06 04:50:27;;;;;;;7.10;3.10;;;14.50;99.90;;;;;;5070844;28;20029;-36
2023/10/06 04:52:54;;;;;;;6.90;3.05;;;14.50;99.90;;;;;;5058974;28;20024;-36
2023/10/06 04:55:20;;;;;;;10.45;3.33;;;14.50;99.90;;;;;;5058866;28;20477;-36
2023/10/06 04:57:47;;;;;;;8.80;3.30;;;14.50;99.90;;;;;;5072302;28;20051;-37
2023/10/06 05:00:13;;;;;;;9.38;2.90;;;14.40;99.90;;;;;;5079131;28;20416;-38
2023/10/06 05:02:43;;;;;;;9.55;3.17;;;14.40;99.90;;;;;;5079102;28;20473;-36
2023/10/06 05:05:10;;;;;;;7.60;3.28;;;14.40;99.90;;;;;;5078362;28;20374;-38
2023/10/06 05:07:37;;;;;;;4.47;2.67;;;14.40;99.90;;;;;;5078804;28;20033;-37
2023/10/06 05:10:08;;;;;;;7.80;3.20;;;14.40;99.90;;;;;;5066223;28;20286;-41
2023/10/06 05:12:34;;;;;;;5.75;2.42;;;14.50;99.90;;;;;;5067073;28;20047;-37
2023/10/06 05:15:01;;;;;;;13.05;3.72;;;14.50;99.90;;;;;;5071405;28;20060;-37
2023/10/06 05:17:27;;;;;;;13.60;2.90;;;14.40;99.90;;;;;;5065607;28;20484;-35
2023/10/06 05:19:54;;;;;;;5.88;3.25;;;14.40;99.90;;;;;;5073434;28;20028;-37
2023/10/06 05:22:21;;;;;;;10.90;2.75;;;14.50;99.90;;;;;;5075054;28;20048;-40
2023/10/06 05:24:47;;;;;;;9.77;3.60;;;14.40;99.90;;;;;;5074774;28;20025;-37
2023/10/06 05:27:13;;;;;;;6.47;3.13;;;14.40;99.90;;;;;;5075351;28;20158;-37
2023/10/06 05:29:39;;;;;;;9.00;2.90;;;14.40;99.90;;;;;;5075266;28;20028;-40
2023/10/06 05:32:05;;;;;;;9.57;3.80;;;14.50;99.90;;;;;;5073638;28;20032;-53
2023/10/06 05:34:31;;;;;;;7.28;3.58;;;14.50;99.90;;;;;;5074422;28;20036;-52
2023/10/06 05:36:59;;;;;;;7.43;3.45;;;14.50;99.90;;;;;;5070677;28;20028;-40
2023/10/06 05:39:28;;;;;;;7.63;3.28;;;14.50;99.90;;;;;;5074700;28;20500;-39
2023/10/06 05:41:53;;;;;;;7.38;2.83;;;14.50;99.90;;;;;;5075051;28;20493;-37
2023/10/06 05:44:21;;;;;;;12.65;4.00;;;14.50;99.90;;;;;;5071687;28;20021;-38
2023/10/06 05:46:46;;;;;;;6.30;3.80;;;14.50;99.90;;;;;;5057320;28;20055;-37
2023/10/06 05:49:12;;;;;;;6.95;2.83;;;14.60;99.90;;;;;;5066656;28;20021;-37
2023/10/06 05:51:38;;;;;;;8.25;4.05;;;14.50;99.90;;;;;;5074852;28;20094;-37
2023/10/06 05:54:09;;;;;;;7.85;3.28;;;14.50;99.90;;;;;;5074767;28;20009;-38
2023/10/06 05:56:37;;;;;;;8.43;3.58;;;14.60;99.90;;;;;;5055066;28;20094;-40
2023/10/06 05:59:05;;;;;;;7.88;3.88;;;14.60;99.90;;;;;;5054778;28;20155;-37
2023/10/06 06:01:33;;;;;;;8.38;3.88;;;14.60;99.90;;;;;;5053361;28;20013;-37
2023/10/06 06:04:07;;;;;;;12.10;4.65;;;14.60;99.90;;;;;;5059636;28;20522;-37
2023/10/06 06:06:36;;;;;;;9.30;3.45;;;14.70;99.90;;;;;;5074776;28;20070;-40
2023/10/06 06:09:04;;;;;;;9.30;4.22;;;14.60;99.90;;;;;;5074139;28;20021;-39
2023/10/06 06:11:31;;;;;;;8.70;3.42;;;14.60;99.90;;;;;;5073240;28;20076;-41
2023/10/06 06:13:58;;;;;;;14.75;4.10;;;14.60;99.90;;;;;;5074604;28;20397;-37
2023/10/06 06:16:24;;;;;;;7.97;3.17;;;14.60;99.90;;;;;;5073021;28;20086;-38
2023/10/06 06:18:50;;;;;;;14.43;4.32;;;14.60;99.90;;;;;;5070652;28;20040;-39
2023/10/06 06:21:16;;;;;;;12.23;4.25;;;14.60;99.90;;;;;;5065416;28;20024;-36
2023/10/06 06:23:46;;;;;;;9.15;3.92;;;14.60;99.90;;;;;;5067661;28;20012;-36
2023/10/06 06:26:31;;;;;;;7.60;3.55;;;14.60;99.90;;;;;;5079881;28;20434;-38
2023/10/06 06:29:02;;;;;;;11.35;4.03;;;14.60;99.90;;;;;;5073526;28;20024;-53
2023/10/06 06:31:33;;;;;;;6.28;3.42;;;14.60;99.90;;;;;;5072687;28;20032;-53
2023/10/06 06:34:04;;;;;;;6.05;3.55;;;14.70;99.90;;;;;;5073929;28;20024;-53
2023/10/06 06:36:34;;;;;;;8.10;4.00;;;14.60;99.90;;;;;;5060901;28;20029;-52
2023/10/06 06:39:00;;;;;;;13.40;4.35;;;14.70;99.90;;;;;;5060875;28;20016;-53
2023/10/06 06:41:26;;;;;;;9.80;3.97;;;14.60;99.90;;;;;;5072234;28;20036;-46
2023/10/06 06:43:58;;;;;;;13.10;3.97;;;14.60;99.90;;;;;;5076964;28;20016;-48
2023/10/06 06:46:26;;;;;;;9.07;3.95;;;14.60;99.90;;;;;;5094154;28;20107;-54
2023/10/06 06:48:52;;;;;;;8.75;4.03;;;14.70;99.90;;;;;;5078805;28;20048;-53
2023/10/06 06:51:19;;;;;;;8.60;4.72;;;14.60;99.90;;;;;;5073557;28;20476;-58
2023/10/06 06:53:45;;;;;;;13.05;3.60;;;14.70;99.90;;;;;;5071374;28;20040;-53
2023/10/06 06:56:11;;;;;;;8.05;3.78;;;14.70;99.90;;;;;;5071280;28;20400;-49
2023/10/06 06:58:37;;;;;;;15.20;4.50;;;14.70;99.90;;;;;;5074491;28;20089;-50
2023/10/06 07:01:06;;;;;;;16.25;4.55;;;14.80;99.90;;;;;;5076045;28;20020;-50
2023/10/06 07:03:32;;;;;;;11.13;3.67;;;14.80;99.90;;;;;;5093341;28;20028;-53
2023/10/06 07:05:57;;;;;;;9.15;3.55;;;14.80;99.90;;;;;;5081191;28;20477;-51
2023/10/06 07:08:24;;;;;;;8.90;3.70;;;14.80;99.90;;;;;;5090223;28;20024;-37
2023/10/06 07:10:53;;;;;;;8.88;3.60;;;14.80;99.90;;;;;;5085127;28;20378;-37
2023/10/06 07:13:22;;;;;;;12.60;3.85;;;14.90;99.90;;;;;;5084827;28;20381;-38
2023/10/06 07:15:49;;;;;;;12.38;3.97;;;14.90;99.90;;;;;;5082861;28;20405;-38
2023/10/06 07:18:15;;;;;;;9.93;3.47;;;15.00;99.90;;;;;;5065421;28;20512;-36
2023/10/06 07:20:40;;;;;;;13.80;4.10;;;15.00;99.90;;;;;;5067681;28;20031;-40
2023/10/06 07:23:06;;;;;;;7.25;3.85;;;15.10;99.90;;;;;;5067802;28;20493;-39
2023/10/06 07:25:32;;;;;;;10.73;4.03;;;15.10;99.90;;;;;;5070484;28;20098;-53
2023/10/06 07:27:59;;;;;;;6.45;3.58;;;15.10;99.90;;;;;;5093327;28;20028;-53
2023/10/06 07:30:27;;;;;;;10.55;3.55;;;15.20;99.90;;;;;;5068136;28;20610;-53
2023/10/06 07:32:56;;;;;;;7.32;3.40;;;15.30;99.90;;;;;;5052955;28;20035;-54
2023/10/06 07:38:10;;;;;;;8.70;3.67;;;15.40;99.90;;;;;;5052352;28;20082;-52
2023/10/06 07:40:38;;;;;;;14.23;4.75;;;15.50;99.90;;;;;;5058765;28;20025;-54
2023/10/06 07:43:05;;;;;;;10.18;4.00;;;15.50;99.90;;;;;;5091184;28;20053;-53
2023/10/06 07:45:31;;;;;;;15.13;3.55;;;15.60;99.90;;;;;;5093125;28;20069;-52
2023/10/06 07:47:58;;;;;;;9.05;3.15;;;15.60;99.90;;;;;;5069785;28;20028;-52
2023/10/06 07:50:26;;;;;;;8.88;3.90;;;15.60;99.90;;;;;;5071842;28;20047;-54
2023/10/06 07:52:53;;;;;;;7.85;3.17;;;15.70;99.90;;;;;;5072734;28;20579;-52
2023/10/06 07:55:22;;;;;;;9.20;3.00;;;15.80;99.90;;;;;;5072949;28;20020;-54
2023/10/06 07:57:48;;;;;;;3.70;2.50;;;15.80;99.90;;;;;;5072352;28;20020;-54
2023/10/06 08:00:24;;;;;;;9.10;3.55;;;15.90;99.90;;;;;;5072940;28;20043;-38
2023/10/06 08:02:50;;;;;;;7.93;4.15;;;15.90;99.90;;;;;;5072716;28;20024;-39
2023/10/06 08:05:19;;;;;;;11.02;3.47;;;16.00;99.90;;;;;;5054390;28;20037;-40
2023/10/06 08:07:45;;;;;;;8.68;3.70;;;16.10;99.90;;;;;;5052878;28;20108;-40
2023/10/06 08:10:14;;;;;;;18.42;3.40;;;16.20;99.90;;;;;;5052595;28;20056;-42
2023/10/06 08:12:50;;;;;;;7.50;2.63;;;16.30;99.90;;;;;;5052601;28;20036;-38
2023/10/06 08:15:21;;;;;;;9.57;3.42;;;16.30;99.90;;;;;;5061970;28;20186;-39
2023/10/06 08:17:52;;;;;;;9.18;3.83;;;16.40;99.90;;;;;;5066728;28;20436;-38
2023/10/06 08:20:20;;;;;;;12.70;3.20;;;16.30;99.90;;;;;;5060646;28;20063;-38
2023/10/06 08:22:46;;;;;;;5.95;3.00;;;16.40;99.90;;;;;;5064885;28;20024;-37
2023/10/06 08:25:19;;;;;;;5.70;4.15;;;16.40;99.90;;;;;;5092587;28;20039;-40
2023/10/06 08:27:47;;;;;;;8.57;2.88;;;16.50;99.90;;;;;;5080539;28;20493;-37
2023/10/06 08:30:18;;;;;;;4.50;3.55;;;16.50;99.90;;;;;;5071732;28;20032;-37
2023/10/06 08:32:45;;;;;;;11.20;3.45;;;16.50;99.90;;;;;;5058203;28;20108;-41
2023/10/06 08:35:14;;;;;;;10.95;3.83;;;16.50;99.90;;;;;;5087907;28;20051;-41
2023/10/06 08:37:43;;;;;;;8.88;3.33;;;16.50;99.90;;;;;;5088942;28;20472;-40
2023/10/06 08:40:16;;;;;;;11.38;2.67;;;16.50;99.90;;;;;;5072310;28;20504;-39
2023/10/06 08:42:46;;;;;;;9.20;3.83;;;16.50;99.90;;;;;;5072347;28;20056;-40
2023/10/06 08:45:14;;;;;;;8.70;3.20;;;16.60;99.90;;;;;;5072234;28;20035;-40
2023/10/06 08:47:40;;;;;;;8.15;2.92;;;16.60;99.90;;;;;;5072291;28;20158;-39
2023/10/06 08:50:07;;;;;;;9.23;3.42;;;16.60;99.90;;;;;;5081561;28;20052;-40
2023/10/06 08:52:32;;;;;;;8.15;3.10;;;16.70;99.90;;;;;;5096304;28;20492;-38
2023/10/06 08:55:00;;;;;;;7.45;3.00;;;16.80;99.90;;;;;;5079515;28;20106;-38
2023/10/06 08:57:29;;;;;;;9.15;3.40;;;16.80;99.90;;;;;;5061327;28;20036;-38
2023/10/06 08:59:56;;;;;;;8.10;2.50;;;16.90;99.90;;;;;;5075815;28;20021;-40
2023/10/06 09:02:25;;;;;;;;;;;17.10;99.90;;;;;;5076262;28;20017;-38
2023/10/06 09:04:51;;;;;;;9.63;3.22;;;17.10;99.90;;;;;;5075706;28;19954;-41
2023/10/06 09:07:17;;;;;;;9.52;2.90;;;17.20;99.90;;;;;;5075470;28;20023;-38
2023/10/06 09:09:43;;;;;;;8.75;3.30;;;17.20;99.90;;;;;;5075970;28;20017;-39
2023/10/06 09:12:31;;;;;;;5.03;3.00;;;17.30;99.90;;;;;;5066628;28;20029;-38
2023/10/06 09:14:57;;;;;;;6.88;2.95;;;17.40;99.90;;;;;;5055823;28;20539;-39
2023/10/06 09:17:33;;;;;;;8.82;2.88;;;17.40;99.90;;;;;;5064144;28;20062;-38
2023/10/06 09:19:59;;;;;;;11.85;3.20;;;17.50;99.90;;;;;;5079607;28;20040;-40
2023/10/06 09:22:29;;;;;;;13.90;3.30;;;17.50;99.90;;;;;;5091256;28;20029;-39
2023/10/06 09:25:04;;;;;;;9.73;3.25;;;17.50;99.90;;;;;;5067624;28;20505;-37
2023/10/06 09:27:32;;;;;;;9.48;2.92;;;17.60;99.90;;;;;;5086196;28;20028;-37
2023/10/06 09:30:07;;;;;;;7.97;3.50;;;17.70;99.90;;;;;;5072075;28;20031;-39
2023/10/06 09:32:34;;;;;;;6.80;2.70;;;17.70;99.90;;;;;;5063282;28;20043;-40
2023/10/06 09:35:17;;;;;;;;;;;17.90;99.90;;;;;;5093260;28;20047;-42
2023/10/06 09:37:42;;;;;;;7.80;3.28;;;18.00;99.90;;;;;;5065965;28;19916;-46
2023/10/06 09:40:21;;;;;;;13.82;2.92;;;18.10;99.90;;;;;;5073859;28;20088;-39
2023/10/06 09:42:49;;;;;;;10.90;4.22;;;18.30;99.90;;;;;;5095343;28;20063;-37
2023/10/06 09:45:18;;;;;;;5.57;2.53;;;18.50;99.90;;;;;;5080230;28;20027;-39
2023/10/06 09:47:51;;;;;;;12.95;3.03;;;18.70;99.90;;;;;;5073420;28;20032;-38
2023/10/06 09:50:20;;;;;;;8.25;3.05;;;18.70;99.90;;;;;;5074968;28;20033;-42
2023/10/06 09:52:48;;;;;;;7.68;2.50;;;18.70;99.90;;;;;;5074784;28;20059;-38
2023/10/06 09:55:15;;;;;;;10.65;3.53;;;18.70;99.90;;;;;;5074061;28;20093;-53
2023/10/06 09:57:43;;;;;;;9.85;2.88;;;18.70;99.90;;;;;;5074793;28;20081;-54
2023/10/06 10:00:16;;;;;;;8.70;4.00;;;18.70;99.90;;;;;;5074380;28;20025;-53
2023/10/06 10:02:47;;;;;;;8.25;3.45;;;18.70;99.90;;;;;;5071783;28;20025;-54
2023/10/06 10:05:20;;;;;;;8.15;2.40;;;18.70;99.90;;;;;;5074811;28;20119;-55
2023/10/06 10:07:49;;;;;;;15.32;3.67;;;18.70;99.90;;;;;;5073358;28;20024;-52
2023/10/06 10:10:22;;;;;;;6.32;2.75;;;18.70;99.90;;;;;;5074484;28;20039;-55
2023/10/06 10:13:09;;;;;;;14.80;3.42;;;18.60;99.90;;;;;;5074722;28;20357;-53
2023/10/06 10:16:26;;;;;;;7.55;2.38;;;18.60;99.90;;;;;;5070798;28;20489;-54
2023/10/06 10:19:07;;;;;;;9.05;2.50;;;18.60;99.90;;;;;;5073160;28;20045;-51
2023/10/06 10:21:34;;;;;;;5.43;2.65;;;18.60;99.90;;;;;;5062426;28;20029;-54
2023/10/06 10:24:09;;;;;;;8.43;2.80;;;18.70;99.90;;;;;;5073255;28;20028;-54
2023/10/06 10:26:37;;;;;;;19.50;2.97;;;18.80;99.90;;;;;;5074230;28;20036;-54
2023/10/06 10:29:12;;;;;;;6.55;3.00;;;18.80;99.90;;;;;;5074461;28;20028;-54
2023/10/06 10:31:57;;;;;;;5.50;2.63;;;18.80;99.90;;;;;;5074053;28;20063;-54
2023/10/06 10:34:25;;;;;;;9.07;2.50;;;19.00;99.90;;;;;;5057129;28;20458;-54
2023/10/06 10:37:01;;;;;;;8.02;2.75;;;19.10;99.90;;;;;;5054689;28;20025;-54
2023/10/06 10:39:45;;;;;;;6.22;2.45;;;19.20;99.90;;;;;;5054388;28;20032;-52
2023/10/06 10:42:12;;;;;;;14.57;2.58;;;19.30;99.90;;;;;;5052680;28;20036;-54
2023/10/06 10:44:39;;;;;;;4.75;2.00;;;19.30;99.90;;;;;;5054161;28;20029;-51
2023/10/06 10:47:06;;;;;;;12.35;2.60;;;19.30;99.90;;;;;;5070678;28;20412;-54
2023/10/06 10:49:32;;;;;;;12.07;3.10;;;19.30;99.90;;;;;;5066530;28;20025;-53
2023/10/06 10:52:12;;;;;;;6.00;2.00;;;19.40;99.90;;;;;;5064265;28;20021;-46
2023/10/06 10:54:40;;;;;;;6.03;2.45;;;19.40;99.90;;;;;;5063722;28;20032;-52
2023/10/06 10:57:09;;;;;;;8.38;2.50;;;19.40;99.90;;;;;;5063809;28;20119;-54
2023/10/06 11:00:12;;;;;;;7.22;2.03;;;19.30;99.90;;;;;;5066936;28;20031;-55
2023/10/06 11:02:41;;;;;;;6.07;2.38;;;19.40;99.90;;;;;;5060808;28;20489;-54
2023/10/06 11:05:07;;;;;;;12.35;3.38;;;19.40;99.90;;;;;;5062800;28;20029;-55
2023/10/06 11:07:35;;;;;;;12.73;2.17;;;19.50;99.90;;;;;;5059157;28;20032;-54
2023/10/06 11:10:02;;;;;;;;;;;19.50;99.90;;;;;;5062469;28;20036;-54
2023/10/06 11:12:30;;;;;;;4.95;2.65;;;19.60;99.90;;;;;;5060319;28;20012;-54
2023/10/06 11:15:13;;;;;;;13.10;4.28;;;19.60;99.90;;;;;;5085999;28;20054;-53
2023/10/06 11:17:41;;;;;;;10.88;2.75;;;19.60;99.90;;;;;;5061367;28;20543;-50
2023/10/06 11:20:13;;;;;;;7.68;2.75;;;19.50;99.90;;;;;;5054153;28;20470;-54
2023/10/06 11:22:41;;;;;;;11.43;2.50;;;19.50;99.90;;;;;;5070438;28;20020;-50
2023/10/06 11:25:10;;;;;;;7.63;2.85;;;19.50;99.90;;;;;;5067341;28;20029;-53
2023/10/06 11:27:38;;;;;;;9.00;2.67;;;19.60;99.90;;;;;;5065603;28;20028;-54
2023/10/06 11:30:07;;;;;;;;;;;19.70;99.90;;;;;;5070906;28;20065;-51
2023/10/06 11:32:33;;;;;;;14.93;3.05;;;19.80;99.90;;;;;;5072946;28;19926;-53
2023/10/06 11:34:59;;;;;;;8.27;2.42;;;19.90;99.90;;;;;;5071061;28;20036;-53
2023/10/06 11:37:28;;;;;;;10.60;2.90;;;20.10;99.90;;;;;;5072638;28;20025;-55
2023/10/06 11:39:57;;;;;;;9.07;2.95;;;20.10;99.90;;;;;;5071017;28;20107;-54
2023/10/06 11:42:25;;;;;;;7.60;3.00;;;20.10;99.90;;;;;;5058102;28;20029;-54
2023/10/06 11:44:56;;;;;;;7.32;2.50;;;20.20;99.90;;;;;;5053393;28;20032;-54
2023/10/06 11:47:28;;;;;;;9.98;3.65;;;20.30;99.90;;;;;;5057654;28;20035;-55
2023/10/06 11:50:05;;;;;;;8.95;2.38;;;20.30;99.90;;;;;;5075751;28;20103;-51
2023/10/06 11:52:31;;;;;;;7.03;2.42;;;20.30;99.90;;;;;;5093353;28;20031;-52
2023/10/06 11:54:58;;;;;;;9.07;2.80;;;20.30;99.90;;;;;;5071767;28;20024;-54
2023/10/06 11:57:47;;;;;;;7.85;2.83;;;20.20;99.90;;;;;;5053431;28;20017;-57
2023/10/06 12:00:17;;;;;;;10.55;2.40;;;20.20;99.90;;;;;;5052909;28;20109;-53
2023/10/06 12:02:53;;;;;;;7.15;2.70;;;20.30;99.90;;;;;;5068230;28;20099;-53
2023/10/06 12:05:21;;;;;;;5.70;1.63;;;20.40;99.90;;;;;;5071220;28;20179;-53
2023/10/06 12:07:49;;;;;;;17.00;2.30;;;20.50;99.90;;;;;;5073839;28;20025;-58
2023/10/06 12:10:17;;;;;;;13.70;2.47;;;20.60;99.90;;;;;;5072819;28;20032;-54
2023/10/06 12:12:46;;;;;;;6.97;3.95;;;20.50;99.90;;;;;;5070069;28;20123;-53
2023/10/06 12:15:15;;;;;;;11.15;2.63;;;20.50;99.90;;;;;;5068242;28;20032;-54
2023/10/06 12:17:41;;;;;;;9.32;2.53;;;20.50;99.90;;;;;;5068451;28;20031;-52
2023/10/06 12:20:15;;;;;;;9.63;2.53;;;20.60;99.90;;;;;;5064585;28;20079;-53
2023/10/06 12:22:44;;;;;;;5.00;1.95;;;20.70;99.90;;;;;;5067012;28;20032;-51
2023/10/06 12:25:23;;;;;;;6.25;2.30;;;20.60;99.90;;;;;;5068021;28;20508;-52
2023/10/06 12:27:49;;;;;;;5.25;2.40;;;20.40;99.90;;;;;;5066723;28;20029;-54
2023/10/06 12:30:17;;;;;;;8.88;1.98;;;20.30;99.90;;;;;;5071223;28;20040;-54
2023/10/06 12:32:47;;;;;;;5.28;2.47;;;20.30;99.90;;;;;;5068501;28;20358;-51
2023/10/06 12:35:18;;;;;;;5.00;1.50;;;20.30;99.90;;;;;;5065301;28;20033;-54
2023/10/06 12:37:45;;;;;;;8.57;2.25;;;20.40;99.90;;;;;;5070147;28;20406;-55
2023/10/06 12:40:13;;;;;;;8.13;2.45;;;20.40;99.90;;;;;;5070639;28;20029;-40
2023/10/06 12:42:42;;;;;;;7.57;2.25;;;20.40;99.90;;;;;;5070335;28;20020;-43
2023/10/06 12:45:17;;;;;;;6.05;1.98;;;20.50;99.90;;;;;;5070429;28;20064;-40
2023/10/06 12:47:46;;;;;;;9.30;1.98;;;20.50;99.90;;;;;;5065976;28;20706;-39
2023/10/06 12:50:17;;;;;;;6.25;1.70;;;20.50;99.90;;;;;;5069507;28;20035;-39
2023/10/06 12:52:55;;;;;;;8.60;2.25;;;20.50;99.90;;;;;;5074890;28;20499;-41
2023/10/06 12:55:21;;;;;;;6.45;2.35;;;20.60;99.90;;;;;;5073451;28;20028;-39
2023/10/06 12:57:48;;;;;;;6.68;2.30;;;20.90;99.90;;;;;;5076073;28;20469;-37
2023/10/06 13:00:15;;;;;;;9.50;2.47;;;21.00;99.90;;;;;;5072722;28;20070;-40
2023/10/06 13:02:41;;;;;;;7.18;2.58;;;21.10;99.90;;;;;;5069547;28;20274;-38
2023/10/06 13:05:16;;;;;;;16.00;2.20;;;21.10;99.90;;;;;;5067715;28;20071;-39
2023/10/06 13:07:43;;;;;;;8.25;2.58;;;21.20;99.90;;;;;;5088326;28;20396;-38
2023/10/06 13:10:09;;;;;;;6.18;2.03;;;21.40;99.90;;;;;;5082623;28;20020;-39
2023/10/06 13:12:39;;;;;;;10.30;2.55;;;21.40;99.90;;;;;;5095939;28;20111;-40
2023/10/06 13:15:08;;;;;;;5.97;2.03;;;21.40;99.90;;;;;;5081178;28;20029;-41
2023/10/06 13:17:35;;;;;;;9.07;1.67;;;21.40;99.90;;;;;;5070644;28;20020;-41
2023/10/06 13:20:00;;;;;;;9.18;2.50;;;21.50;99.90;;;;;;5072626;28;20036;-36